sensor_id;sensor_type;location;lat;lon;timestamp;temperature;humidity
18218;DHT22;9234;49.344;11.120;2023-08-17T00:00:37;19.80;99.90
18218;DHT22;9234;49.344;11.120;2023-08-17T00:03:06;19.80;99.90
18218;DHT22;9234;49.344;11.120;2023-08-17T00:05:35;19.80;99.90
18218;DHT22;9234;49.344;11.120;2023-08-17T00:08:04;19.90;99.90
18218;DHT22;9234;49.344;11.120;2023-08-17T00:10:33;19.90;99.90
18218;DHT22;9234;49.344;11.120;2023-08-17T00:13:01;19.90;99.90
18218;DHT22;9234;49.344;11.120;2023-08-17T00:15:31;19.90;99.90
18218;DHT22;9234;49.344;11.120;2023-08-17T00:17:59;20.00;99.90
18218;DHT22;9234;49.344;11.120;2023-08-17T00:20:27;20.00;99.90
18218;DHT22;9234;49.344;11.120;2023-08-17T00:22:57;20.00;99.90
18218;DHT22;9234;49.344;11.120;2023-08-17T00:25:25;20.00;99.90
18218;DHT22;9234;49.344;11.120;2023-08-17T00:27:53;20.00;99.90
18218;DHT22;9234;49.344;11.120;2023-08-17T00:30:22;20.10;99.90
18218;DHT22;9234;49.344;11.120;2023-08-17T00:32:50;20.10;99.90
18218;DHT22;9234;49.344;11.120;2023-08-17T00:35:19;20.10;99.90
18218;DHT22;9234;49.344;11.120;2023-08-17T00:37:48;20.10;99.90
18218;DHT22;9234;49.344;11.120;2023-08-17T00:40:18;20.00;99.90
18218;DHT22;9234;49.344;11.120;2023-08-17T00:42:46;20.00;99.90
18218;DHT22;9234;49.344;11.120;2023-08-17T00:45:17;20.00;99.90
18218;DHT22;9234;49.344;11.120;2023-08-17T00:47:46;20.00;99.90
18218;DHT22;9234;49.344;11.120;2023-08-17T00:50:15;20.00;99.90
18218;DHT22;9234;49.344;11.120;2023-08-17T00:52:43;20.00;99.90
18218;DHT22;9234;49.344;11.120;2023-08-17T00:55:12;20.00;99.90
18218;DHT22;9234;49.344;11.120;2023-08-17T00:57:42;20.00;99.90
18218;DHT22;9234;49.344;11.120;2023-08-17T01:00:12;20.00;99.90
18218;DHT22;9234;49.344;11.120;2023-08-17T01:02:46;20.00;99.90
18218;DHT22;9234;49.344;11.120;2023-08-17T01:05:16;20.00;99.90
18218;DHT22;9234;49.344;11.120;2023-08-17T01:07:44;20.00;99.90
18218;DHT22;9234;49.344;11.120;2023-08-17T01:10:13;20.00;99.90
18218;DHT22;9234;49.344;11.120;2023-08-17T01:12:52;20.00;99.90
18218;DHT22;9234;49.344;11.120;2023-08-17T01:15:30;20.00;99.90
18218;DHT22;9234;49.344;11.120;2023-08-17T01:18:11;20.00;99.90
18218;DHT22;9234;49.344;11.120;2023-08-17T01:20:45;20.00;99.90
18218;DHT22;9234;49.344;11.120;2023-08-17T01:23:15;19.90;99.90
18218;DHT22;9234;49.344;11.120;2023-08-17T01:25:44;19.90;99.90
18218;DHT22;9234;49.344;11.120;2023-08-17T01:28:12;19.90;99.90
18218;DHT22;9234;49.344;11.120;2023-08-17T01:30:46;19.90;99.90
18218;DHT22;9234;49.344;11.120;2023-08-17T01:33:29;19.90;99.90
18218;DHT22;9234;49.344;11.120;2023-08-17T01:36:08;19.90;99.90
18218;DHT22;9234;49.344;11.120;2023-08-17T01:38:42;19.90;99.90
18218;DHT22;9234;49.344;11.120;2023-08-17T01:41:14;19.90;99.90
18218;DHT22;9234;49.344;11.120;2023-08-17T01:43:44;19.90;99.90
18218;DHT22;9234;49.344;11.120;2023-08-17T01:46:16;19.90;99.90
18218;DHT22;9234;49.344;11.120;2023-08-17T01:48:45;19.90;99.90
18218;DHT22;9234;49.344;11.120;2023-08-17T01:51:17;19.90;99.90
18218;DHT22;9234;49.344;11.120;2023-08-17T01:53:49;19.90;99.90
18218;DHT22;9234;49.344;11.120;2023-08-17T01:56:17;19.90;99.90
18218;DHT22;9234;49.344;11.120;2023-08-17T01:58:46;19.90;99.90
18218;DHT22;9234;49.344;11.120;2023-08-17T02:01:14;19.90;99.90
18218;DHT22;9234;49.344;11.120;2023-08-17T02:03:42;19.90;99.90
18218;DHT22;9234;49.344;11.120;2023-08-17T02:06:10;19.90;99.90
18218;DHT22;9234;49.344;11.120;2023-08-17T02:08:39;19.90;99.90
18218;DHT22;9234;49.344;11.120;2023-08-17T02:11:08;19.90;99.90
18218;DHT22;9234;49.344;11.120;2023-08-17T02:13:38;19.90;99.90
18218;DHT22;9234;49.344;11.120;2023-08-17T02:16:06;19.90;99.90
18218;DHT22;9234;49.344;11.120;2023-08-17T02:18:35;19.90;99.90
18218;DHT22;9234;49.344;11.120;2023-08-17T02:21:03;19.90;99.90
18218;DHT22;9234;49.344;11.120;2023-08-17T02:23:31;19.90;99.90
18218;DHT22;9234;49.344;11.120;2023-08-17T02:25:59;19.90;99.90
18218;DHT22;9234;49.344;11.120;2023-08-17T02:28:29;19.90;99.90
18218;DHT22;9234;49.344;11.120;2023-08-17T02:31:00;19.90;99.90
18218;DHT22;9234;49.344;11.120;2023-08-17T02:33:29;19.90;99.90
18218;DHT22;9234;49.344;11.120;2023-08-17T02:35:57;20.00;99.90
18218;DHT22;9234;49.344;11.120;2023-08-17T02:38:25;20.00;99.90
18218;DHT22;9234;49.344;11.120;2023-08-17T02:40:53;20.00;99.90
18218;DHT22;9234;49.344;11.120;2023-08-17T02:43:22;20.00;99.90
18218;DHT22;9234;49.344;11.120;2023-08-17T02:45:51;20.00;99.90
18218;DHT22;9234;49.344;11.120;2023-08-17T02:48:20;20.00;99.90
18218;DHT22;9234;49.344;11.120;2023-08-17T02:50:48;20.00;99.90
18218;DHT22;9234;49.344;11.120;2023-08-17T02:53:16;20.00;99.90
18218;DHT22;9234;49.344;11.120;2023-08-17T02:55:46;20.00;99.90
18218;DHT22;9234;49.344;11.120;2023-08-17T02:58:14;20.00;99.90
18218;DHT22;9234;49.344;11.120;2023-08-17T03:00:42;20.00;99.90
18218;DHT22;9234;49.344;11.120;2023-08-17T03:03:12;20.00;99.90
18218;DHT22;9234;49.344;11.120;2023-08-17T03:05:41;20.00;99.90
18218;DHT22;9234;49.344;11.120;2023-08-17T03:08:09;20.00;99.90
18218;DHT22;9234;49.344;11.120;2023-08-17T03:10:38;20.00;99.90
18218;DHT22;9234;49.344;11.120;2023-08-17T03:13:06;20.00;99.90
18218;DHT22;9234;49.344;11.120;2023-08-17T03:15:35;20.00;99.90
18218;DHT22;9234;49.344;11.120;2023-08-17T03:18:07;20.00;99.90
18218;DHT22;9234;49.344;11.120;2023-08-17T03:20:38;19.90;99.90
18218;DHT22;9234;49.344;11.120;2023-08-17T03:23:07;19.90;99.90
18218;DHT22;9234;49.344;11.120;2023-08-17T03:25:35;19.90;99.90
18218;DHT22;9234;49.344;11.120;2023-08-17T03:28:04;19.90;99.90
18218;DHT22;9234;49.344;11.120;2023-08-17T03:30:33;19.90;99.90
18218;DHT22;9234;49.344;11.120;2023-08-17T03:33:02;19.90;99.90
18218;DHT22;9234;49.344;11.120;2023-08-17T03:35:31;19.90;99.90
18218;DHT22;9234;49.344;11.120;2023-08-17T03:38:02;19.90;99.90
18218;DHT22;9234;49.344;11.120;2023-08-17T03:40:30;19.90;99.90
18218;DHT22;9234;49.344;11.120;2023-08-17T03:43:00;19.90;99.90
18218;DHT22;9234;49.344;11.120;2023-08-17T03:45:29;19.90;99.90
18218;DHT22;9234;49.344;11.120;2023-08-17T03:47:58;19.80;99.90
18218;DHT22;9234;49.344;11.120;2023-08-17T03:50:28;19.80;99.90
18218;DHT22;9234;49.344;11.120;2023-08-17T03:52:58;19.80;99.90
18218;DHT22;9234;49.344;11.120;2023-08-17T03:55:30;19.80;99.90
18218;DHT22;9234;49.344;11.120;2023-08-17T03:57:58;19.80;99.90
18218;DHT22;9234;49.344;11.120;2023-08-17T04:00:27;19.80;99.90
18218;DHT22;9234;49.344;11.120;2023-08-17T04:02:58;19.80;99.90
18218;DHT22;9234;49.344;11.120;2023-08-17T04:05:27;19.80;99.90
18218;DHT22;9234;49.344;11.120;2023-08-17T04:07:56;19.80;99.90
18218;DHT22;9234;49.344;11.120;2023-08-17T04:10:30;19.80;99.90
18218;DHT22;9234;49.344;11.120;2023-08-17T04:12:58;19.80;99.90
18218;DHT22;9234;49.344;11.120;2023-08-17T04:15:26;19.80;99.90
18218;DHT22;9234;49.344;11.120;2023-08-17T04:17:54;19.70;99.90
18218;DHT22;9234;49.344;11.120;2023-08-17T04:20:23;19.70;99.90
18218;DHT22;9234;49.344;11.120;2023-08-17T04:22:52;19.70;99.90
18218;DHT22;9234;49.344;11.120;2023-08-17T04:25:21;19.70;99.90
18218;DHT22;9234;49.344;11.120;2023-08-17T04:27:50;19.70;99.90
18218;DHT22;9234;49.344;11.120;2023-08-17T04:30:19;19.60;99.90
18218;DHT22;9234;49.344;11.120;2023-08-17T04:32:53;19.60;99.90
18218;DHT22;9234;49.344;11.120;2023-08-17T04:35:22;19.60;99.90
18218;DHT22;9234;49.344;11.120;2023-08-17T04:37:50;19.60;99.90
18218;DHT22;9234;49.344;11.120;2023-08-17T04:40:19;19.50;99.90
18218;DHT22;9234;49.344;11.120;2023-08-17T04:42:51;19.50;99.90
18218;DHT22;9234;49.344;11.120;2023-08-17T04:45:21;19.50;99.90
18218;DHT22;9234;49.344;11.120;2023-08-17T04:47:49;19.50;99.90
18218;DHT22;9234;49.344;11.120;2023-08-17T04:50:18;19.50;99.90
18218;DHT22;9234;49.344;11.120;2023-08-17T04:52:47;19.50;99.90
18218;DHT22;9234;49.344;11.120;2023-08-17T04:55:15;19.50;99.90
18218;DHT22;9234;49.344;11.120;2023-08-17T04:57:44;19.50;99.90
18218;DHT22;9234;49.344;11.120;2023-08-17T05:00:15;19.50;99.90
18218;DHT22;9234;49.344;11.120;2023-08-17T05:02:44;19.50;99.90
18218;DHT22;9234;49.344;11.120;2023-08-17T05:05:13;19.40;99.90
18218;DHT22;9234;49.344;11.120;2023-08-17T05:07:41;19.50;99.90
18218;DHT22;9234;49.344;11.120;2023-08-17T05:10:10;19.50;99.90
18218;DHT22;9234;49.344;11.120;2023-08-17T05:12:39;19.40;99.90
18218;DHT22;9234;49.344;11.120;2023-08-17T05:15:09;19.50;99.90
18218;DHT22;9234;49.344;11.120;2023-08-17T05:17:40;19.50;99.90
18218;DHT22;9234;49.344;11.120;2023-08-17T05:20:11;19.50;99.90
18218;DHT22;9234;49.344;11.120;2023-08-17T05:22:41;19.50;99.90
18218;DHT22;9234;49.344;11.120;2023-08-17T05:25:09;19.50;99.90
18218;DHT22;9234;49.344;11.120;2023-08-17T05:27:39;19.60;99.90
18218;DHT22;9234;49.344;11.120;2023-08-17T05:30:08;19.60;99.90
18218;DHT22;9234;49.344;11.120;2023-08-17T05:32:41;19.60;99.90
18218;DHT22;9234;49.344;11.120;2023-08-17T05:35:11;19.70;99.90
18218;DHT22;9234;49.344;11.120;2023-08-17T05:37:39;19.70;99.90
18218;DHT22;9234;49.344;11.120;2023-08-17T05:40:08;19.80;99.90
18218;DHT22;9234;49.344;11.120;2023-08-17T05:42:37;19.80;99.90
18218;DHT22;9234;49.344;11.120;2023-08-17T05:45:06;19.90;99.90
18218;DHT22;9234;49.344;11.120;2023-08-17T05:47:35;19.90;99.90
18218;DHT22;9234;49.344;11.120;2023-08-17T05:50:06;20.00;99.90
18218;DHT22;9234;49.344;11.120;2023-08-17T05:52:35;20.00;99.90
18218;DHT22;9234;49.344;11.120;2023-08-17T05:55:04;20.10;99.90
18218;DHT22;9234;49.344;11.120;2023-08-17T05:57:32;20.10;99.90
18218;DHT22;9234;49.344;11.120;2023-08-17T06:00:01;20.20;99.90
18218;DHT22;9234;49.344;11.120;2023-08-17T06:02:38;20.20;99.90
18218;DHT22;9234;49.344;11.120;2023-08-17T06:05:08;20.30;99.90
18218;DHT22;9234;49.344;11.120;2023-08-17T06:07:36;20.40;99.90
18218;DHT22;9234;49.344;11.120;2023-08-17T06:10:05;20.40;99.90
18218;DHT22;9234;49.344;11.120;2023-08-17T06:12:34;20.50;99.90
18218;DHT22;9234;49.344;11.120;2023-08-17T06:15:03;20.50;99.90
18218;DHT22;9234;49.344;11.120;2023-08-17T06:17:32;20.60;99.90
18218;DHT22;9234;49.344;11.120;2023-08-17T06:20:00;20.70;99.90
18218;DHT22;9234;49.344;11.120;2023-08-17T06:22:31;20.70;99.90
18218;DHT22;9234;49.344;11.120;2023-08-17T06:24:59;20.80;99.90
18218;DHT22;9234;49.344;11.120;2023-08-17T06:27:27;20.90;99.90
18218;DHT22;9234;49.344;11.120;2023-08-17T06:29:56;21.00;99.90
18218;DHT22;9234;49.344;11.120;2023-08-17T06:32:24;21.00;99.90
18218;DHT22;9234;49.344;11.120;2023-08-17T06:34:52;21.10;99.90
18218;DHT22;9234;49.344;11.120;2023-08-17T06:37:21;21.20;99.90
18218;DHT22;9234;49.344;11.120;2023-08-17T06:39:51;21.20;99.90
18218;DHT22;9234;49.344;11.120;2023-08-17T06:42:19;21.30;99.90
18218;DHT22;9234;49.344;11.120;2023-08-17T06:44:48;21.40;99.90
18218;DHT22;9234;49.344;11.120;2023-08-17T06:47:16;21.50;99.90
18218;DHT22;9234;49.344;11.120;2023-08-17T06:49:44;21.60;99.90
18218;DHT22;9234;49.344;11.120;2023-08-17T06:52:12;21.70;99.90
18218;DHT22;9234;49.344;11.120;2023-08-17T06:54:40;21.80;99.90
18218;DHT22;9234;49.344;11.120;2023-08-17T06:57:10;21.90;99.90
18218;DHT22;9234;49.344;11.120;2023-08-17T06:59:39;22.00;99.90
18218;DHT22;9234;49.344;11.120;2023-08-17T07:02:07;22.10;99.90
18218;DHT22;9234;49.344;11.120;2023-08-17T07:04:35;22.20;99.90
18218;DHT22;9234;49.344;11.120;2023-08-17T07:07:04;22.30;99.90
18218;DHT22;9234;49.344;11.120;2023-08-17T07:09:32;22.40;99.90
18218;DHT22;9234;49.344;11.120;2023-08-17T07:12:01;22.50;99.90
18218;DHT22;9234;49.344;11.120;2023-08-17T07:14:31;22.60;99.90
18218;DHT22;9234;49.344;11.120;2023-08-17T07:17:00;22.70;99.90
18218;DHT22;9234;49.344;11.120;2023-08-17T07:19:28;22.80;99.90
18218;DHT22;9234;49.344;11.120;2023-08-17T07:22:16;22.90;99.90
18218;DHT22;9234;49.344;11.120;2023-08-17T07:24:45;23.00;99.90
18218;DHT22;9234;49.344;11.120;2023-08-17T07:27:13;23.20;99.90
18218;DHT22;9234;49.344;11.120;2023-08-17T07:29:43;23.20;99.90
18218;DHT22;9234;49.344;11.120;2023-08-17T07:32:11;23.30;99.90
18218;DHT22;9234;49.344;11.120;2023-08-17T07:34:40;23.40;99.90
18218;DHT22;9234;49.344;11.120;2023-08-17T07:37:09;23.50;99.90
18218;DHT22;9234;49.344;11.120;2023-08-17T07:39:42;23.70;99.90
18218;DHT22;9234;49.344;11.120;2023-08-17T07:42:10;23.70;99.90
18218;DHT22;9234;49.344;11.120;2023-08-17T07:44:39;23.80;99.90
18218;DHT22;9234;49.344;11.120;2023-08-17T07:47:10;24.00;99.90
18218;DHT22;9234;49.344;11.120;2023-08-17T07:49:38;24.10;99.90
18218;DHT22;9234;49.344;11.120;2023-08-17T07:52:06;24.20;99.90
18218;DHT22;9234;49.344;11.120;2023-08-17T07:54:35;24.30;99.90
18218;DHT22;9234;49.344;11.120;2023-08-17T07:57:03;24.40;99.90
18218;DHT22;9234;49.344;11.120;2023-08-17T07:59:32;24.40;99.90
18218;DHT22;9234;49.344;11.120;2023-08-17T08:02:00;24.50;99.90
18218;DHT22;9234;49.344;11.120;2023-08-17T08:04:30;24.60;99.90
18218;DHT22;9234;49.344;11.120;2023-08-17T08:06:58;24.70;99.90
18218;DHT22;9234;49.344;11.120;2023-08-17T08:09:26;24.80;99.90
18218;DHT22;9234;49.344;11.120;2023-08-17T08:11:54;24.90;99.90
18218;DHT22;9234;49.344;11.120;2023-08-17T08:14:23;25.00;99.90
18218;DHT22;9234;49.344;11.120;2023-08-17T08:16:51;25.10;99.90
18218;DHT22;9234;49.344;11.120;2023-08-17T08:19:19;25.20;99.90
18218;DHT22;9234;49.344;11.120;2023-08-17T08:21:49;25.30;99.90
18218;DHT22;9234;49.344;11.120;2023-08-17T08:24:17;25.40;99.90
18218;DHT22;9234;49.344;11.120;2023-08-17T08:27:04;25.60;99.90
18218;DHT22;9234;49.344;11.120;2023-08-17T08:29:33;25.70;99.90
18218;DHT22;9234;49.344;11.120;2023-08-17T08:32:01;25.80;99.90
18218;DHT22;9234;49.344;11.120;2023-08-17T08:34:30;25.90;99.90
18218;DHT22;9234;49.344;11.120;2023-08-17T08:37:00;26.10;99.90
18218;DHT22;9234;49.344;11.120;2023-08-17T08:39:28;26.20;99.90
18218;DHT22;9234;49.344;11.120;2023-08-17T08:41:57;26.30;99.90
18218;DHT22;9234;49.344;11.120;2023-08-17T08:44:26;26.50;99.90
18218;DHT22;9234;49.344;11.120;2023-08-17T08:46:54;26.60;99.90
18218;DHT22;9234;49.344;11.120;2023-08-17T08:49:25;26.70;99.90
18218;DHT22;9234;49.344;11.120;2023-08-17T08:51:56;26.80;99.90
18218;DHT22;9234;49.344;11.120;2023-08-17T08:54:29;27.00;99.90
18218;DHT22;9234;49.344;11.120;2023-08-17T08:57:08;27.10;99.90
18218;DHT22;9234;49.344;11.120;2023-08-17T08:59:41;27.20;99.90
18218;DHT22;9234;49.344;11.120;2023-08-17T09:02:15;27.30;99.90
18218;DHT22;9234;49.344;11.120;2023-08-17T09:04:44;27.50;99.90
18218;DHT22;9234;49.344;11.120;2023-08-17T09:07:14;27.60;99.90
18218;DHT22;9234;49.344;11.120;2023-08-17T09:09:45;27.70;99.90
18218;DHT22;9234;49.344;11.120;2023-08-17T09:12:13;27.80;99.90
18218;DHT22;9234;49.344;11.120;2023-08-17T09:14:55;28.00;99.90
18218;DHT22;9234;49.344;11.120;2023-08-17T09:17:24;28.10;99.90
18218;DHT22;9234;49.344;11.120;2023-08-17T09:19:53;28.20;99.90
18218;DHT22;9234;49.344;11.120;2023-08-17T09:22:24;28.30;99.90
18218;DHT22;9234;49.344;11.120;2023-08-17T09:24:54;28.40;99.90
18218;DHT22;9234;49.344;11.120;2023-08-17T09:27:28;28.50;99.90
18218;DHT22;9234;49.344;11.120;2023-08-17T09:30:01;28.60;99.90
18218;DHT22;9234;49.344;11.120;2023-08-17T09:32:32;28.80;99.90
18218;DHT22;9234;49.344;11.120;2023-08-17T09:35:01;28.90;99.90
18218;DHT22;9234;49.344;11.120;2023-08-17T09:37:32;29.00;99.90
18218;DHT22;9234;49.344;11.120;2023-08-17T09:40:01;29.10;99.90
18218;DHT22;9234;49.344;11.120;2023-08-17T09:42:30;29.20;99.90
18218;DHT22;9234;49.344;11.120;2023-08-17T09:45:03;29.40;99.20
18218;DHT22;9234;49.344;11.120;2023-08-17T09:47:32;29.50;98.80
18218;DHT22;9234;49.344;11.120;2023-08-17T09:50:01;29.60;98.30
18218;DHT22;9234;49.344;11.120;2023-08-17T09:52:38;29.80;98.10
18218;DHT22;9234;49.344;11.120;2023-08-17T09:55:07;29.90;97.30
18218;DHT22;9234;49.344;11.120;2023-08-17T09:57:40;30.00;97.30
18218;DHT22;9234;49.344;11.120;2023-08-17T10:00:10;30.00;97.90
18218;DHT22;9234;49.344;11.120;2023-08-17T10:02:39;30.10;97.50
18218;DHT22;9234;49.344;11.120;2023-08-17T10:05:10;30.30;96.40
18218;DHT22;9234;49.344;11.120;2023-08-17T10:07:46;30.40;96.10
18218;DHT22;9234;49.344;11.120;2023-08-17T10:10:19;30.60;95.40
18218;DHT22;9234;49.344;11.120;2023-08-17T10:12:56;30.70;95.80
18218;DHT22;9234;49.344;11.120;2023-08-17T10:15:34;30.90;95.00
18218;DHT22;9234;49.344;11.120;2023-08-17T10:18:12;31.00;93.30
18218;DHT22;9234;49.344;11.120;2023-08-17T10:20:52;31.00;94.10
18218;DHT22;9234;49.344;11.120;2023-08-17T10:23:28;31.10;93.00
18218;DHT22;9234;49.344;11.120;2023-08-17T10:25:57;31.20;92.70
18218;DHT22;9234;49.344;11.120;2023-08-17T10:28:29;31.40;93.30
18218;DHT22;9234;49.344;11.120;2023-08-17T10:30:59;31.60;92.30
18218;DHT22;9234;49.344;11.120;2023-08-17T10:33:29;31.70;90.90
18218;DHT22;9234;49.344;11.120;2023-08-17T10:35:59;31.80;90.40
18218;DHT22;9234;49.344;11.120;2023-08-17T10:38:29;31.90;89.80
18218;DHT22;9234;49.344;11.120;2023-08-17T10:41:08;32.10;89.60
18218;DHT22;9234;49.344;11.120;2023-08-17T10:43:57;32.10;89.50
18218;DHT22;9234;49.344;11.120;2023-08-17T10:46:36;32.30;88.70
18218;DHT22;9234;49.344;11.120;2023-08-17T10:49:07;32.40;88.20
18218;DHT22;9234;49.344;11.120;2023-08-17T10:52:03;32.60;86.70
18218;DHT22;9234;49.344;11.120;2023-08-17T10:54:41;32.70;86.40
18218;DHT22;9234;49.344;11.120;2023-08-17T10:57:30;32.90;87.20
18218;DHT22;9234;49.344;11.120;2023-08-17T11:00:21;33.10;86.80
18218;DHT22;9234;49.344;11.120;2023-08-17T11:02:55;33.20;85.40
18218;DHT22;9234;49.344;11.120;2023-08-17T11:05:40;33.40;83.90
18218;DHT22;9234;49.344;11.120;2023-08-17T11:08:11;33.40;82.20
18218;DHT22;9234;49.344;11.120;2023-08-17T11:11:02;33.50;81.30
18218;DHT22;9234;49.344;11.120;2023-08-17T11:13:33;33.70;81.10
18218;DHT22;9234;49.344;11.120;2023-08-17T11:16:04;33.80;83.10
18218;DHT22;9234;49.344;11.120;2023-08-17T11:18:33;33.90;80.20
18218;DHT22;9234;49.344;11.120;2023-08-17T11:21:04;34.00;78.90
18218;DHT22;9234;49.344;11.120;2023-08-17T11:23:34;34.20;77.60
18218;DHT22;9234;49.344;11.120;2023-08-17T11:26:05;34.30;76.50
18218;DHT22;9234;49.344;11.120;2023-08-17T11:28:34;34.30;74.40
18218;DHT22;9234;49.344;11.120;2023-08-17T11:31:09;34.30;75.20
18218;DHT22;9234;49.344;11.120;2023-08-17T11:33:39;34.40;76.70
18218;DHT22;9234;49.344;11.120;2023-08-17T11:36:08;34.50;74.60
18218;DHT22;9234;49.344;11.120;2023-08-17T11:38:39;34.60;75.80
18218;DHT22;9234;49.344;11.120;2023-08-17T11:41:11;34.80;75.00
18218;DHT22;9234;49.344;11.120;2023-08-17T11:43:45;34.90;74.50
18218;DHT22;9234;49.344;11.120;2023-08-17T11:46:15;35.10;72.30
18218;DHT22;9234;49.344;11.120;2023-08-17T11:48:44;35.10;72.70
18218;DHT22;9234;49.344;11.120;2023-08-17T11:51:12;35.20;70.40
18218;DHT22;9234;49.344;11.120;2023-08-17T11:53:41;35.30;72.00
18218;DHT22;9234;49.344;11.120;2023-08-17T11:56:16;35.40;72.30
18218;DHT22;9234;49.344;11.120;2023-08-17T11:58:46;35.60;70.50
18218;DHT22;9234;49.344;11.120;2023-08-17T12:01:14;35.90;70.50
18218;DHT22;9234;49.344;11.120;2023-08-17T12:03:44;36.00;69.30
18218;DHT22;9234;49.344;11.120;2023-08-17T12:06:13;35.90;68.70
18218;DHT22;9234;49.344;11.120;2023-08-17T12:08:44;35.90;68.90
18218;DHT22;9234;49.344;11.120;2023-08-17T12:11:17;36.00;70.40
18218;DHT22;9234;49.344;11.120;2023-08-17T12:13:49;36.20;68.30
18218;DHT22;9234;49.344;11.120;2023-08-17T12:16:19;36.30;68.70
18218;DHT22;9234;49.344;11.120;2023-08-17T12:18:48;36.50;65.30
18218;DHT22;9234;49.344;11.120;2023-08-17T12:21:19;36.70;67.00
18218;DHT22;9234;49.344;11.120;2023-08-17T12:23:48;36.90;64.60
18218;DHT22;9234;49.344;11.120;2023-08-17T12:26:22;37.00;65.00
18218;DHT22;9234;49.344;11.120;2023-08-17T12:28:50;37.00;62.20
18218;DHT22;9234;49.344;11.120;2023-08-17T12:31:21;37.10;64.50
18218;DHT22;9234;49.344;11.120;2023-08-17T12:33:53;37.20;61.90
18218;DHT22;9234;49.344;11.120;2023-08-17T12:36:21;37.30;64.60
18218;DHT22;9234;49.344;11.120;2023-08-17T12:38:50;37.50;63.70
18218;DHT22;9234;49.344;11.120;2023-08-17T12:41:18;37.70;62.90
18218;DHT22;9234;49.344;11.120;2023-08-17T12:43:48;37.80;60.00
18218;DHT22;9234;49.344;11.120;2023-08-17T12:46:16;37.90;60.80
18218;DHT22;9234;49.344;11.120;2023-08-17T12:48:44;38.00;60.80
18218;DHT22;9234;49.344;11.120;2023-08-17T12:51:13;38.20;57.80
18218;DHT22;9234;49.344;11.120;2023-08-17T12:53:41;38.40;59.20
18218;DHT22;9234;49.344;11.120;2023-08-17T12:56:16;38.40;58.60
18218;DHT22;9234;49.344;11.120;2023-08-17T12:58:44;38.70;58.60
18218;DHT22;9234;49.344;11.120;2023-08-17T13:01:14;38.90;56.30
18218;DHT22;9234;49.344;11.120;2023-08-17T13:03:42;39.20;56.20
18218;DHT22;9234;49.344;11.120;2023-08-17T13:06:11;39.40;54.90
18218;DHT22;9234;49.344;11.120;2023-08-17T13:08:39;39.60;54.80
18218;DHT22;9234;49.344;11.120;2023-08-17T13:11:07;39.80;53.40
18218;DHT22;9234;49.344;11.120;2023-08-17T13:13:35;40.00;52.00
18218;DHT22;9234;49.344;11.120;2023-08-17T13:16:04;40.30;52.70
18218;DHT22;9234;49.344;11.120;2023-08-17T13:18:34;40.60;53.10
18218;DHT22;9234;49.344;11.120;2023-08-17T13:21:02;40.90;52.00
18218;DHT22;9234;49.344;11.120;2023-08-17T13:23:30;41.10;51.60
18218;DHT22;9234;49.344;11.120;2023-08-17T13:25:59;41.40;50.20
18218;DHT22;9234;49.344;11.120;2023-08-17T13:28:27;41.30;50.30
18218;DHT22;9234;49.344;11.120;2023-08-17T13:30:56;41.00;50.80
18218;DHT22;9234;49.344;11.120;2023-08-17T13:33:45;40.60;49.90
18218;DHT22;9234;49.344;11.120;2023-08-17T13:36:13;40.10;51.30
18218;DHT22;9234;49.344;11.120;2023-08-17T13:38:42;40.10;51.10
18218;DHT22;9234;49.344;11.120;2023-08-17T13:41:11;40.30;50.80
18218;DHT22;9234;49.344;11.120;2023-08-17T13:43:40;40.50;50.70
18218;DHT22;9234;49.344;11.120;2023-08-17T13:46:08;40.30;48.70
18218;DHT22;9234;49.344;11.120;2023-08-17T13:48:36;39.90;49.60
18218;DHT22;9234;49.344;11.120;2023-08-17T13:51:07;39.60;50.00
18218;DHT22;9234;49.344;11.120;2023-08-17T13:53:35;39.30;50.80
18218;DHT22;9234;49.344;11.120;2023-08-17T13:56:04;38.90;51.50
18218;DHT22;9234;49.344;11.120;2023-08-17T13:58:32;38.40;52.80
18218;DHT22;9234;49.344;11.120;2023-08-17T14:01:00;38.30;55.00
18218;DHT22;9234;49.344;11.120;2023-08-17T14:03:29;38.20;54.60
18218;DHT22;9234;49.344;11.120;2023-08-17T14:05:57;37.90;54.60
18218;DHT22;9234;49.344;11.120;2023-08-17T14:08:27;37.50;54.60
18218;DHT22;9234;49.344;11.120;2023-08-17T14:10:55;37.00;54.70
18218;DHT22;9234;49.344;11.120;2023-08-17T14:13:23;36.60;55.80
18218;DHT22;9234;49.344;11.120;2023-08-17T14:15:52;36.20;56.40
18218;DHT22;9234;49.344;11.120;2023-08-17T14:18:22;35.80;57.10
18218;DHT22;9234;49.344;11.120;2023-08-17T14:20:51;35.50;58.10
18218;DHT22;9234;49.344;11.120;2023-08-17T14:23:19;35.30;59.00
18218;DHT22;9234;49.344;11.120;2023-08-17T14:25:49;35.30;60.00
18218;DHT22;9234;49.344;11.120;2023-08-17T14:28:19;35.70;59.90
18218;DHT22;9234;49.344;11.120;2023-08-17T14:30:47;36.00;58.50
18218;DHT22;9234;49.344;11.120;2023-08-17T14:33:19;36.60;58.10
18218;DHT22;9234;49.344;11.120;2023-08-17T14:35:48;37.40;58.00
18218;DHT22;9234;49.344;11.120;2023-08-17T14:38:16;38.00;57.20
18218;DHT22;9234;49.344;11.120;2023-08-17T14:40:48;38.50;56.70
18218;DHT22;9234;49.344;11.120;2023-08-17T14:43:17;39.10;55.50
18218;DHT22;9234;49.344;11.120;2023-08-17T14:45:45;39.30;53.70
18218;DHT22;9234;49.344;11.120;2023-08-17T14:48:13;39.10;53.40
18218;DHT22;9234;49.344;11.120;2023-08-17T14:50:42;38.50;53.10
18218;DHT22;9234;49.344;11.120;2023-08-17T14:53:10;37.80;54.10
18218;DHT22;9234;49.344;11.120;2023-08-17T14:55:38;37.20;55.50
18218;DHT22;9234;49.344;11.120;2023-08-17T14:58:08;36.60;56.50
18218;DHT22;9234;49.344;11.120;2023-08-17T15:00:36;36.10;57.40
18218;DHT22;9234;49.344;11.120;2023-08-17T15:03:05;35.60;58.60
18218;DHT22;9234;49.344;11.120;2023-08-17T15:05:33;35.10;59.80
18218;DHT22;9234;49.344;11.120;2023-08-17T15:08:03;34.70;61.40
18218;DHT22;9234;49.344;11.120;2023-08-17T15:10:32;34.30;62.90
18218;DHT22;9234;49.344;11.120;2023-08-17T15:13:02;33.90;62.60
18218;DHT22;9234;49.344;11.120;2023-08-17T15:15:37;33.50;63.50
18218;DHT22;9234;49.344;11.120;2023-08-17T15:18:06;33.20;65.40
18218;DHT22;9234;49.344;11.120;2023-08-17T15:20:35;32.90;65.90
18218;DHT22;9234;49.344;11.120;2023-08-17T15:23:03;32.50;66.20
18218;DHT22;9234;49.344;11.120;2023-08-17T15:25:32;32.20;66.10
18218;DHT22;9234;49.344;11.120;2023-08-17T15:28:00;31.90;66.80
18218;DHT22;9234;49.344;11.120;2023-08-17T15:30:28;31.60;66.60
18218;DHT22;9234;49.344;11.120;2023-08-17T15:32:58;31.30;65.90
18218;DHT22;9234;49.344;11.120;2023-08-17T15:35:26;31.10;66.80
18218;DHT22;9234;49.344;11.120;2023-08-17T15:37:54;30.90;67.80
18218;DHT22;9234;49.344;11.120;2023-08-17T15:40:23;30.70;68.70
18218;DHT22;9234;49.344;11.120;2023-08-17T15:42:51;30.50;70.00
18218;DHT22;9234;49.344;11.120;2023-08-17T15:45:19;30.10;71.80
18218;DHT22;9234;49.344;11.120;2023-08-17T15:47:48;29.90;73.80